createdAt,value
2023-01-30T00:00:31.284Z,43.80
2023-01-30T00:01:31.259Z,45.50
2023-01-30T00:02:31.260Z,43.60
2023-01-30T00:03:31.254Z,45.10
2023-01-30T00:04:31.249Z,47.70
2023-01-30T00:05:31.224Z,44.80
2023-01-30T00:06:31.224Z,46.40
2023-01-30T00:07:31.196Z,46.90
2023-01-30T00:08:31.234Z,45.20
2023-01-30T00:09:31.170Z,46.00
2023-01-30T00:10:31.204Z,45.50
2023-01-30T00:11:31.159Z,45.10
2023-01-30T00:12:31.163Z,44.20
2023-01-30T00:13:31.127Z,45.30
2023-01-30T00:14:31.159Z,45.10
2023-01-30T00:15:31.109Z,44.50
2023-01-30T00:16:31.192Z,43.70
2023-01-30T00:17:31.092Z,46.90
2023-01-30T00:18:31.110Z,44.90
2023-01-30T00:19:31.062Z,44.70
2023-01-30T00:20:31.087Z,44.70
2023-01-30T00:21:31.081Z,45.10
2023-01-30T00:22:31.062Z,45.70
2023-01-30T00:23:31.022Z,45.50
2023-01-30T00:24:31.201Z,44.30
2023-01-30T00:25:31.121Z,43.60
2023-01-30T00:26:31.064Z,47.50
2023-01-30T00:27:30.980Z,49.40
2023-01-30T00:28:30.990Z,42.80
2023-01-30T00:29:30.972Z,45.90
2023-01-30T00:30:31.037Z,46.10
2023-01-30T00:31:31.110Z,44.70
2023-01-30T00:32:30.963Z,47.10
2023-01-30T00:33:30.922Z,49.10
2023-01-30T00:34:30.930Z,48.10
2023-01-30T00:35:30.903Z,48.00
2023-01-30T00:36:30.940Z,48.20
2023-01-30T00:37:30.883Z,48.50
2023-01-30T00:38:30.888Z,47.60
2023-01-30T00:39:30.856Z,48.30
2023-01-30T00:40:30.871Z,47.40
2023-01-30T00:41:30.834Z,48.30
2023-01-30T00:42:30.911Z,48.20
2023-01-30T00:43:30.817Z,49.00
2023-01-30T00:44:30.840Z,50.50
2023-01-30T00:45:30.851Z,46.60
2023-01-30T00:46:30.826Z,47.60
2023-01-30T00:47:30.771Z,48.10
2023-01-30T00:48:30.822Z,50.00
2023-01-30T00:49:31.903Z,48.80
2023-01-30T00:50:30.762Z,49.60
2023-01-30T00:51:30.730Z,49.70
2023-01-30T00:52:30.753Z,51.30
2023-01-30T00:53:30.711Z,50.00
2023-01-30T00:54:30.744Z,50.30
2023-01-30T00:55:30.689Z,53.60
2023-01-30T00:56:30.703Z,49.10
2023-01-30T00:57:30.669Z,52.10
2023-01-30T00:58:30.713Z,51.50
2023-01-30T00:59:30.649Z,52.30
2023-01-30T01:00:30.678Z,52.80
2023-01-30T01:01:30.646Z,49.00
2023-01-30T01:02:30.643Z,51.40
2023-01-30T01:03:30.607Z,49.40
2023-01-30T01:04:30.630Z,52.60
2023-01-30T01:05:30.589Z,53.20
2023-01-30T01:06:30.622Z,50.40
2023-01-30T01:07:30.575Z,51.20
2023-01-30T01:08:30.581Z,48.90
2023-01-30T01:09:30.546Z,52.50
2023-01-30T01:10:30.571Z,48.20
2023-01-30T01:11:30.536Z,49.00
2023-01-30T01:12:30.563Z,52.40
2023-01-30T01:13:30.507Z,51.60
2023-01-30T01:14:30.516Z,50.20
2023-01-30T01:15:30.497Z,51.90
2023-01-30T01:16:30.570Z,46.20
2023-01-30T01:17:30.466Z,51.00
2023-01-30T01:18:30.513Z,54.40
2023-01-30T01:19:30.445Z,47.50
2023-01-30T01:20:30.487Z,49.30
2023-01-30T01:21:30.421Z,49.20
2023-01-30T01:22:30.434Z,53.60
2023-01-30T01:23:30.406Z,47.80
2023-01-30T01:24:30.439Z,52.40
2023-01-30T01:25:30.393Z,50.70
2023-01-30T01:26:30.450Z,49.80
2023-01-30T01:27:30.368Z,50.80
2023-01-30T01:28:30.385Z,50.10
2023-01-30T01:29:30.339Z,51.90
2023-01-30T01:30:30.375Z,51.10
2023-01-30T01:31:30.426Z,49.20
2023-01-30T01:32:30.334Z,50.80
2023-01-30T01:33:30.298Z,47.40
2023-01-30T01:34:30.327Z,47.70
2023-01-30T01:35:30.291Z,48.00
2023-01-30T01:37:30.263Z,49.70
2023-01-30T01:38:30.275Z,46.80
2023-01-30T01:39:30.241Z,48.80
2023-01-30T01:40:30.268Z,46.60
2023-01-30T01:41:30.224Z,47.40
2023-01-30T01:42:30.267Z,47.60
2023-01-30T01:43:30.194Z,49.30
2023-01-30T01:44:30.211Z,49.70
2023-01-30T01:45:30.179Z,48.10
2023-01-30T01:46:30.188Z,49.90
2023-01-30T01:47:30.171Z,48.10
2023-01-30T01:48:30.190Z,47.50
2023-01-30T01:49:30.131Z,50.70
2023-01-30T01:50:30.153Z,49.80
2023-01-30T01:51:30.117Z,48.60
2023-01-30T01:52:30.130Z,49.10
2023-01-30T01:53:30.093Z,47.10
2023-01-30T01:54:30.139Z,48.60
2023-01-30T01:55:30.071Z,47.40
2023-01-30T01:56:30.091Z,47.70
2023-01-30T01:57:30.055Z,52.00
2023-01-30T01:58:30.063Z,48.50
2023-01-30T01:59:30.040Z,47.50
2023-01-30T02:00:30.060Z,51.20
2023-01-30T02:01:30.089Z,49.00
2023-01-30T02:02:30.172Z,50.30
2023-01-30T02:03:29.989Z,49.60
2023-01-30T02:04:29.998Z,48.00
2023-01-30T02:05:29.973Z,48.30
2023-01-30T02:06:29.997Z,49.50
2023-01-30T02:07:29.964Z,49.10
2023-01-30T02:08:29.958Z,49.90
2023-01-30T02:09:29.926Z,48.00
2023-01-30T02:10:29.940Z,50.40
2023-01-30T02:11:29.902Z,51.50
2023-01-30T02:12:29.938Z,52.90
2023-01-30T02:13:29.883Z,51.50
2023-01-30T02:14:29.899Z,48.10
2023-01-30T02:15:29.877Z,55.40
2023-01-30T02:16:29.881Z,54.80
2023-01-30T02:17:29.884Z,57.10
2023-01-30T02:18:29.885Z,56.30
2023-01-30T02:19:29.826Z,63.70
2023-01-30T02:20:29.830Z,57.40
2023-01-30T02:21:29.804Z,65.10
2023-01-30T02:22:29.817Z,66.30
2023-01-30T02:23:29.797Z,67.70
2023-01-30T02:24:29.825Z,66.50
2023-01-30T02:25:29.768Z,72.40
2023-01-30T02:26:29.858Z,70.90
2023-01-30T02:27:29.754Z,61.00
2023-01-30T02:28:29.753Z,68.70
2023-01-30T02:29:29.723Z,60.90
2023-01-30T02:30:29.894Z,62.40
2023-01-30T02:31:29.886Z,56.10
2023-01-30T02:32:29.692Z,59.60
2023-01-30T02:33:29.704Z,57.50
2023-01-30T02:34:29.663Z,55.10
2023-01-30T02:35:29.680Z,55.40
2023-01-30T02:36:29.662Z,51.60
2023-01-30T02:37:29.698Z,56.30
2023-01-30T02:38:29.642Z,54.80
2023-01-30T02:39:29.647Z,49.90
2023-01-30T02:40:29.622Z,53.40
2023-01-30T02:41:29.629Z,50.20
2023-01-30T02:42:29.625Z,47.60
2023-01-30T02:43:29.606Z,51.50
2023-01-30T02:44:29.567Z,43.80
2023-01-30T02:45:29.573Z,48.10
2023-01-30T02:46:29.543Z,45.70
2023-01-30T02:47:29.560Z,44.60
2023-01-30T02:48:29.540Z,44.60
2023-01-30T02:49:29.539Z,49.60
2023-01-30T02:50:29.506Z,46.70
2023-01-30T02:51:29.516Z,44.30
2023-01-30T02:52:29.483Z,43.70
2023-01-30T02:53:29.495Z,44.10
2023-01-30T02:54:29.504Z,43.70
2023-01-30T02:55:29.471Z,43.00
2023-01-30T02:56:29.441Z,44.80
2023-01-30T02:57:29.470Z,48.40
2023-01-30T02:58:29.419Z,47.10
2023-01-30T02:59:29.437Z,44.90
2023-01-30T03:00:29.436Z,49.50
2023-01-30T03:01:29.464Z,42.70
2023-01-30T03:02:29.416Z,45.80
2023-01-30T03:03:29.393Z,45.40
2023-01-30T03:04:29.372Z,46.10
2023-01-30T03:05:29.370Z,46.20
2023-01-30T03:06:29.350Z,48.60
2023-01-30T03:07:29.349Z,43.50
2023-01-30T03:08:29.313Z,49.10
2023-01-30T03:09:29.349Z,46.20
2023-01-30T03:10:29.293Z,48.10
2023-01-30T03:11:29.302Z,50.10
2023-01-30T03:12:29.297Z,46.70
2023-01-30T03:13:29.294Z,49.90
2023-01-30T03:14:29.258Z,51.80
2023-01-30T03:15:29.281Z,49.60
2023-01-30T03:16:29.236Z,51.70
2023-01-30T03:17:29.243Z,51.10
2023-01-30T03:18:29.245Z,47.70
2023-01-30T03:19:29.224Z,50.20
2023-01-30T03:20:29.189Z,52.10
2023-01-30T03:21:29.203Z,49.00
2023-01-30T03:22:29.168Z,48.10
2023-01-30T03:23:29.184Z,51.60
2023-01-30T03:24:29.171Z,50.60
2023-01-30T03:25:29.229Z,47.70
2023-01-30T03:26:29.152Z,48.30
2023-01-30T03:27:29.154Z,53.30
2023-01-30T03:28:29.115Z,50.40
2023-01-30T03:29:29.122Z,51.10
2023-01-30T03:30:29.107Z,52.90
2023-01-30T03:31:29.236Z,50.30
2023-01-30T03:32:29.073Z,51.50
2023-01-30T03:33:29.075Z,49.70
2023-01-30T03:34:29.043Z,48.60
2023-01-30T03:35:29.070Z,52.30
2023-01-30T03:36:29.056Z,48.70
2023-01-30T03:37:29.035Z,51.00
2023-01-30T03:38:29.041Z,48.90
2023-01-30T03:39:29.020Z,47.70
2023-01-30T03:40:28.996Z,50.60
2023-01-30T03:41:29.013Z,50.20
2023-01-30T03:42:28.991Z,48.70
2023-01-30T03:43:28.976Z,50.30
2023-01-30T03:44:28.955Z,51.60
2023-01-30T03:45:28.956Z,50.50
2023-01-30T03:46:28.970Z,59.40
2023-01-30T03:47:28.938Z,55.00
2023-01-30T03:48:28.923Z,55.20
2023-01-30T03:49:28.921Z,57.50
2023-01-30T03:50:28.874Z,55.90
2023-01-30T03:51:28.890Z,59.20
2023-01-30T03:52:28.867Z,60.90
2023-01-30T03:53:28.869Z,85.10
2023-01-30T03:54:28.872Z,84.00
2023-01-30T03:55:28.849Z,117.10
2023-01-30T03:56:28.827Z,112.80
2023-01-30T03:57:28.843Z,95.10
2023-01-30T03:58:28.796Z,109.80
2023-01-30T03:59:28.818Z,110.20
2023-01-30T04:00:28.804Z,100.20
2023-01-30T04:01:28.828Z,98.60
2023-01-30T04:02:28.801Z,104.60
2023-01-30T04:03:28.776Z,107.90
2023-01-30T04:04:28.734Z,111.40
2023-01-30T04:05:28.744Z,104.20
2023-01-30T04:06:28.753Z,115.40
2023-01-30T04:07:28.725Z,113.50
2023-01-30T04:08:28.688Z,104.90
2023-01-30T04:09:28.699Z,87.40
2023-01-30T04:10:28.678Z,110.50
2023-01-30T04:11:28.687Z,107.70
2023-01-30T04:12:28.662Z,106.90
2023-01-30T04:13:28.666Z,106.80
2023-01-30T04:14:28.625Z,114.50
2023-01-30T04:15:28.638Z,100.70
2023-01-30T04:16:28.632Z,103.50
2023-01-30T04:17:28.621Z,110.30
2023-01-30T04:18:28.597Z,107.00
2023-01-30T04:19:28.613Z,129.20
2023-01-30T04:20:28.585Z,98.50
2023-01-30T04:21:28.578Z,96.90
2023-01-30T04:22:28.548Z,89.50
2023-01-30T04:23:28.566Z,90.50
2023-01-30T04:24:28.555Z,79.00
2023-01-30T04:25:28.534Z,95.20
2023-01-30T04:26:28.566Z,110.80
2023-01-30T04:27:28.521Z,132.00
2023-01-30T04:28:28.481Z,158.90
2023-01-30T04:29:28.501Z,141.80
2023-01-30T04:30:28.536Z,159.90
2023-01-30T04:31:28.494Z,171.00
2023-01-30T04:32:28.451Z,173.70
2023-01-30T04:33:28.455Z,212.90
2023-01-30T04:34:28.423Z,188.60
2023-01-30T04:35:28.438Z,190.80
2023-01-30T04:36:28.419Z,192.90
2023-01-30T04:37:28.414Z,186.30
2023-01-30T04:38:28.378Z,162.10
2023-01-30T04:39:28.389Z,179.80
2023-01-30T04:40:28.378Z,172.50
2023-01-30T04:41:28.352Z,166.20
2023-01-30T04:42:28.503Z,180.50
2023-01-30T04:43:28.332Z,220.20
2023-01-30T04:44:28.353Z,154.30
2023-01-30T04:45:29.328Z,185.20
2023-01-30T04:46:28.328Z,165.20
2023-01-30T04:47:28.317Z,174.00
2023-01-30T04:48:28.349Z,209.40
2023-01-30T04:49:28.262Z,156.80
2023-01-30T04:50:28.281Z,181.90
2023-01-30T04:51:28.252Z,222.70
2023-01-30T04:52:28.262Z,179.30
2023-01-30T04:53:28.231Z,175.80
2023-01-30T04:54:28.262Z,159.70
2023-01-30T04:55:28.200Z,161.70
2023-01-30T04:56:28.216Z,166.50
2023-01-30T04:57:28.186Z,196.90
2023-01-30T04:58:28.208Z,195.80
2023-01-30T04:59:28.161Z,175.70
2023-01-30T05:00:28.227Z,170.40
2023-01-30T05:01:28.145Z,178.80
2023-01-30T05:02:28.150Z,137.90
2023-01-30T05:03:28.135Z,152.20
2023-01-30T05:04:28.140Z,172.10
2023-01-30T05:05:28.099Z,191.40
2023-01-30T05:06:28.129Z,125.30
2023-01-30T05:07:28.080Z,139.10
2023-01-30T05:08:28.095Z,117.00
2023-01-30T05:09:28.055Z,130.20
2023-01-30T05:10:28.180Z,177.10
2023-01-30T05:11:28.044Z,165.60
2023-01-30T05:12:28.086Z,155.10
2023-01-30T05:13:28.012Z,165.00
2023-01-30T05:14:28.028Z,126.70
2023-01-30T05:15:27.998Z,192.10
2023-01-30T05:16:28.012Z,207.30
2023-01-30T05:17:28.004Z,150.70
2023-01-30T05:18:28.007Z,194.00
2023-01-30T05:19:27.963Z,154.00
2023-01-30T05:20:27.974Z,210.10
2023-01-30T05:21:28.027Z,153.90
2023-01-30T05:22:27.943Z,176.50
2023-01-30T05:23:27.919Z,138.00
2023-01-30T05:24:27.944Z,184.80
2023-01-30T05:25:27.905Z,144.70
2023-01-30T05:26:27.977Z,162.90
2023-01-30T05:27:27.871Z,133.40
2023-01-30T05:28:27.891Z,136.10
2023-01-30T05:29:27.852Z,129.60
2023-01-30T05:30:27.896Z,171.80
2023-01-30T05:31:27.861Z,148.90
2023-01-30T05:32:27.843Z,151.00
2023-01-30T05:33:27.808Z,151.70
2023-01-30T05:34:27.818Z,179.50
2023-01-30T05:35:27.812Z,161.40
2023-01-30T05:36:27.822Z,144.50
2023-01-30T05:37:27.766Z,128.60
2023-01-30T05:38:27.776Z,124.10
2023-01-30T05:39:27.750Z,158.70
2023-01-30T05:40:27.755Z,143.40
2023-01-30T05:41:27.720Z,166.50
2023-01-30T05:42:27.751Z,129.70
2023-01-30T05:43:27.701Z,114.50
2023-01-30T05:44:27.725Z,112.90
2023-01-30T05:45:27.687Z,101.50
2023-01-30T05:46:27.715Z,104.00
2023-01-30T05:47:27.659Z,114.70
2023-01-30T05:48:27.741Z,135.10
2023-01-30T05:49:27.887Z,140.10
2023-01-30T05:50:27.659Z,137.90
2023-01-30T05:51:27.641Z,132.70
2023-01-30T05:52:27.628Z,166.10
2023-01-30T05:53:27.613Z,108.30
2023-01-30T05:54:27.628Z,148.80
2023-01-30T05:55:27.580Z,121.10
2023-01-30T05:56:27.618Z,124.50
2023-01-30T05:57:27.559Z,110.00
2023-01-30T05:58:27.577Z,125.30
2023-01-30T05:59:27.534Z,136.10
2023-01-30T06:00:27.570Z,128.30
2023-01-30T06:01:27.513Z,154.40
2023-01-30T06:02:27.560Z,128.30
2023-01-30T06:03:27.516Z,146.30
2023-01-30T06:04:27.510Z,175.40
2023-01-30T06:05:27.475Z,117.20
2023-01-30T06:06:27.505Z,136.90
2023-01-30T06:07:27.458Z,124.20
2023-01-30T06:08:27.466Z,133.70
2023-01-30T06:09:27.432Z,133.40
2023-01-30T06:10:27.446Z,142.30
2023-01-30T06:11:27.412Z,112.40
2023-01-30T06:12:27.441Z,113.70
2023-01-30T06:13:27.390Z,144.80
2023-01-30T06:14:27.402Z,153.20
2023-01-30T06:15:27.366Z,137.80
2023-01-30T06:16:27.472Z,134.50
2023-01-30T06:17:29.104Z,145.90
2023-01-30T06:18:27.379Z,125.80
2023-01-30T06:19:27.334Z,133.70
2023-01-30T06:20:27.344Z,145.30
2023-01-30T06:21:27.312Z,119.80
2023-01-30T06:22:27.323Z,144.50
2023-01-30T06:23:27.290Z,115.40
2023-01-30T06:24:27.313Z,102.30
2023-01-30T06:25:27.280Z,152.70
2023-01-30T06:26:27.314Z,131.30
2023-01-30T06:27:27.262Z,149.10
2023-01-30T06:28:27.286Z,123.10
2023-01-30T06:29:27.229Z,136.10
2023-01-30T06:30:27.293Z,121.20
2023-01-30T06:31:27.288Z,125.30
2023-01-30T06:32:27.220Z,144.20
2023-01-30T06:33:27.191Z,118.30
2023-01-30T06:34:27.207Z,158.40
2023-01-30T06:35:27.167Z,156.70
2023-01-30T06:36:27.198Z,192.10
2023-01-30T06:37:27.162Z,154.60
2023-01-30T06:38:27.157Z,186.90
2023-01-30T06:39:27.135Z,159.20
2023-01-30T06:40:27.149Z,167.30
2023-01-30T06:41:27.103Z,152.30
2023-01-30T06:42:27.135Z,197.80
2023-01-30T06:43:27.081Z,190.20
2023-01-30T06:44:27.103Z,208.30
2023-01-30T06:45:27.061Z,180.40
2023-01-30T06:46:27.051Z,154.80
2023-01-30T06:47:27.077Z,189.00
2023-01-30T06:48:27.045Z,185.50
2023-01-30T06:49:27.036Z,185.20
2023-01-30T06:50:27.019Z,198.50
2023-01-30T06:51:27.019Z,196.70
2023-01-30T06:52:26.999Z,140.00
2023-01-30T06:53:26.997Z,166.20
2023-01-30T06:54:27.005Z,156.30
2023-01-30T06:55:26.995Z,164.70
2023-01-30T06:56:26.951Z,210.20
2023-01-30T06:57:26.955Z,188.40
2023-01-30T06:58:26.934Z,168.80
2023-01-30T06:59:26.944Z,226.80
2023-01-30T07:00:26.929Z,196.60
2023-01-30T07:01:28.876Z,188.80
2023-01-30T07:02:26.880Z,238.50
2023-01-30T07:03:26.914Z,188.50
2023-01-30T07:04:26.949Z,194.80
2023-01-30T07:05:26.871Z,262.30
2023-01-30T07:06:26.872Z,212.70
2023-01-30T07:07:26.855Z,206.80
2023-01-30T07:08:26.847Z,205.70
2023-01-30T07:09:26.831Z,234.70
2023-01-30T07:10:26.801Z,189.40
2023-01-30T07:11:26.811Z,243.20
2023-01-30T07:12:26.793Z,204.30
2023-01-30T07:13:26.789Z,170.30
2023-01-30T07:14:26.757Z,193.30
2023-01-30T07:15:26.793Z,177.90
2023-01-30T07:16:26.758Z,230.60
2023-01-30T07:17:26.748Z,184.20
2023-01-30T07:18:26.731Z,175.20
2023-01-30T07:19:26.727Z,150.80
2023-01-30T07:20:26.695Z,176.90
2023-01-30T07:21:26.704Z,170.70
2023-01-30T07:22:26.677Z,232.60
2023-01-30T07:23:26.685Z,207.20
2023-01-30T07:24:26.679Z,162.80
2023-01-30T07:25:26.663Z,192.20
2023-01-30T07:26:26.690Z,148.40
2023-01-30T07:27:26.644Z,131.30
2023-01-30T07:28:26.612Z,161.10
2023-01-30T07:29:26.627Z,154.30
2023-01-30T07:30:26.661Z,134.70
2023-01-30T07:31:26.620Z,121.80
2023-01-30T07:32:26.568Z,118.60
2023-01-30T07:33:26.599Z,174.90
2023-01-30T07:34:26.551Z,158.10
2023-01-30T07:35:26.587Z,140.20
2023-01-30T07:36:26.550Z,152.90
2023-01-30T07:37:26.537Z,148.40
2023-01-30T07:38:26.537Z,125.30
2023-01-30T07:39:26.519Z,152.30
2023-01-30T07:40:26.485Z,132.50
2023-01-30T07:41:26.499Z,138.50
2023-01-30T07:42:26.503Z,150.90
2023-01-30T07:43:26.477Z,129.80
2023-01-30T07:44:26.447Z,143.40
2023-01-30T07:45:26.460Z,121.50
2023-01-30T07:46:26.424Z,155.30
2023-01-30T07:47:26.443Z,137.40
2023-01-30T07:48:26.478Z,168.90
2023-01-30T07:49:26.412Z,193.00
2023-01-30T07:50:26.381Z,189.20
2023-01-30T07:51:26.403Z,182.30
2023-01-30T07:52:26.367Z,178.20
2023-01-30T07:53:26.379Z,63.60
2023-01-30T07:54:26.357Z,97.20
2023-01-30T07:55:26.350Z,128.30
2023-01-30T07:56:26.316Z,61.20
2023-01-30T07:57:26.329Z,41.40
2023-01-30T07:58:26.300Z,56.10
2023-01-30T07:59:26.307Z,60.90
2023-01-30T08:00:26.316Z,63.10
2023-01-30T08:01:26.407Z,66.00
2023-01-30T08:02:26.255Z,62.70
2023-01-30T08:03:26.273Z,57.30
2023-01-30T08:04:26.283Z,62.40
2023-01-30T08:05:26.250Z,66.30
2023-01-30T08:06:26.325Z,64.90
2023-01-30T08:07:26.227Z,74.10
2023-01-30T08:08:26.191Z,70.20
2023-01-30T08:09:26.208Z,65.80
2023-01-30T08:10:26.176Z,70.10
2023-01-30T08:11:26.184Z,60.80
2023-01-30T08:12:26.177Z,75.10
2023-01-30T08:13:26.164Z,76.70
2023-01-30T08:14:26.128Z,75.20
2023-01-30T08:15:26.149Z,85.00
2023-01-30T08:16:26.135Z,94.80
2023-01-30T08:17:26.137Z,100.80
2023-01-30T08:18:26.118Z,94.00
2023-01-30T08:19:26.101Z,66.50
2023-01-30T08:20:26.074Z,81.00
2023-01-30T08:21:26.093Z,69.80
2023-01-30T08:22:26.046Z,83.50
2023-01-30T08:23:26.059Z,51.00
2023-01-30T08:24:26.041Z,48.20
2023-01-30T08:25:26.046Z,33.50
2023-01-30T08:26:26.017Z,37.40
2023-01-30T08:27:26.018Z,36.70
2023-01-30T08:28:25.992Z,44.00
2023-01-30T08:29:25.997Z,44.00
2023-01-30T08:30:26.033Z,53.30
2023-01-30T08:31:26.023Z,49.70
2023-01-30T08:32:25.943Z,49.80
2023-01-30T08:33:25.956Z,58.70
2023-01-30T08:34:25.922Z,58.00
2023-01-30T08:35:25.938Z,60.50
2023-01-30T08:36:25.927Z,62.10
2023-01-30T08:37:25.916Z,54.60
2023-01-30T08:38:25.879Z,57.40
2023-01-30T08:39:25.893Z,50.60
2023-01-30T08:40:25.860Z,55.90
2023-01-30T08:41:25.875Z,52.40
2023-01-30T08:42:25.871Z,61.10
2023-01-30T08:43:25.860Z,61.30
2023-01-30T08:44:25.820Z,50.60
2023-01-30T08:45:25.841Z,53.50
2023-01-30T08:46:25.829Z,52.00
2023-01-30T08:47:25.810Z,42.90
2023-01-30T08:48:28.186Z,52.70
2023-01-30T08:49:25.798Z,45.10
2023-01-30T08:50:25.754Z,49.30
2023-01-30T08:51:25.769Z,54.50
2023-01-30T08:52:25.736Z,44.70
2023-01-30T08:53:25.745Z,42.20
2023-01-30T08:54:25.735Z,42.20
2023-01-30T08:55:25.729Z,41.50
2023-01-30T08:56:25.693Z,33.30
2023-01-30T08:57:25.708Z,48.00
2023-01-30T08:58:25.676Z,39.80
2023-01-30T08:59:25.685Z,38.20
2023-01-30T09:00:25.700Z,38.40
2023-01-30T09:01:25.924Z,40.00
2023-01-30T09:02:25.661Z,33.80
2023-01-30T09:03:25.642Z,38.10
2023-01-30T09:04:25.606Z,37.20
2023-01-30T09:05:25.624Z,37.00
2023-01-30T09:06:26.335Z,37.90
2023-01-30T09:07:25.605Z,33.20
2023-01-30T09:08:25.577Z,32.40
2023-01-30T09:09:25.581Z,34.00
2023-01-30T09:10:25.599Z,32.90
2023-01-30T09:11:25.556Z,33.60
2023-01-30T09:12:25.563Z,27.60
2023-01-30T09:13:25.541Z,29.00
2023-01-30T09:14:25.519Z,29.60
2023-01-30T09:15:25.520Z,30.30
2023-01-30T09:16:25.481Z,28.00
2023-01-30T09:17:25.504Z,24.80
2023-01-30T09:18:25.494Z,24.90
2023-01-30T09:19:25.476Z,20.20
2023-01-30T09:20:25.512Z,23.40
2023-01-30T09:21:25.454Z,17.30
2023-01-30T09:22:26.091Z,24.00
2023-01-30T09:23:25.448Z,24.20
2023-01-30T09:24:25.426Z,23.10
2023-01-30T09:25:25.421Z,26.90
2023-01-30T09:26:25.431Z,24.70
2023-01-30T09:27:25.394Z,25.80
2023-01-30T09:28:25.358Z,25.20
2023-01-30T09:29:25.367Z,23.40
2023-01-30T09:30:25.390Z,21.00
2023-01-30T09:31:25.502Z,23.40
2023-01-30T09:32:25.329Z,25.30
2023-01-30T09:33:25.323Z,23.80
2023-01-30T09:34:25.326Z,21.10
2023-01-30T09:35:25.308Z,21.50
2023-01-30T09:36:25.300Z,22.10
2023-01-30T09:37:25.284Z,21.90
2023-01-30T09:38:25.247Z,19.60
2023-01-30T09:39:25.260Z,23.40
2023-01-30T09:40:25.285Z,20.90
2023-01-30T09:41:25.253Z,23.20
2023-01-30T09:42:25.236Z,18.60
2023-01-30T09:43:25.232Z,21.70
2023-01-30T09:44:25.189Z,21.80
2023-01-30T09:45:25.202Z,22.20
2023-01-30T09:46:25.223Z,20.40
2023-01-30T09:47:25.190Z,21.60
2023-01-30T09:48:25.169Z,23.90
2023-01-30T09:49:25.155Z,23.80
2023-01-30T09:50:25.124Z,23.10
2023-01-30T09:51:25.137Z,26.00
2023-01-30T09:52:25.104Z,21.80
2023-01-30T09:53:25.125Z,20.80
2023-01-30T09:54:25.113Z,22.30
2023-01-30T09:55:25.093Z,23.90
2023-01-30T09:56:25.056Z,19.80
2023-01-30T09:57:25.082Z,22.70
2023-01-30T09:58:25.063Z,20.60
2023-01-30T09:59:25.053Z,23.60
2023-01-30T10:00:25.044Z,22.80
2023-01-30T10:01:25.033Z,21.40
2023-01-30T10:02:25.002Z,20.80
2023-01-30T10:03:25.063Z,21.00
2023-01-30T10:04:24.999Z,20.20
2023-01-30T10:05:25.004Z,21.90
2023-01-30T10:06:24.983Z,22.50
2023-01-30T10:07:25.033Z,19.00
2023-01-30T10:08:24.942Z,21.70
2023-01-30T10:09:25.449Z,19.20
2023-01-30T10:10:24.929Z,24.50
2023-01-30T10:11:24.932Z,21.10
2023-01-30T10:12:24.924Z,21.60
2023-01-30T10:13:24.906Z,23.30
2023-01-30T10:14:24.886Z,23.10
2023-01-30T10:15:24.881Z,25.60
2023-01-30T10:16:24.852Z,24.20
2023-01-30T10:17:24.859Z,20.40
2023-01-30T10:18:24.866Z,22.60
2023-01-30T10:19:35.208Z,22.00
2023-01-30T10:20:25.250Z,22.60
2023-01-30T10:21:24.818Z,24.50
2023-01-30T10:22:24.785Z,24.90
2023-01-30T10:23:24.798Z,25.60
2023-01-30T10:24:24.806Z,23.40
2023-01-30T10:25:24.773Z,19.20
2023-01-30T10:26:24.771Z,21.60
2023-01-30T10:27:24.751Z,22.30
2023-01-30T10:28:24.722Z,21.00
2023-01-30T10:29:24.732Z,21.70
2023-01-30T10:30:24.902Z,18.30
2023-01-30T10:31:24.802Z,25.80
2023-01-30T10:32:24.675Z,21.00
2023-01-30T10:33:24.705Z,22.50
2023-01-30T10:34:24.658Z,19.90
2023-01-30T10:35:26.191Z,19.90
2023-01-30T10:36:24.657Z,24.70
2023-01-30T10:37:24.645Z,20.80
2023-01-30T10:38:24.611Z,21.00
2023-01-30T10:39:24.640Z,25.00
2023-01-30T10:40:24.590Z,20.30
2023-01-30T10:41:24.641Z,21.30
2023-01-30T10:42:24.595Z,19.40
2023-01-30T10:43:24.583Z,22.20
2023-01-30T10:44:24.555Z,24.30
2023-01-30T10:45:24.573Z,25.50
2023-01-30T10:46:24.542Z,22.10
2023-01-30T10:47:26.455Z,19.40
2023-01-30T10:48:31.358Z,22.30
2023-01-30T10:49:24.524Z,18.70
2023-01-30T10:50:24.487Z,19.60
2023-01-30T10:51:24.502Z,22.00
2023-01-30T10:52:24.517Z,22.30
2023-01-30T10:53:24.484Z,23.40
2023-01-30T10:54:24.467Z,24.10
2023-01-30T10:55:36.286Z,26.50
2023-01-30T10:56:24.433Z,21.50
2023-01-30T10:57:24.448Z,21.70
2023-01-30T10:58:24.402Z,20.40
2023-01-30T10:59:24.435Z,23.10
2023-01-30T11:00:24.477Z,23.00
2023-01-30T11:01:24.415Z,19.10
2023-01-30T11:02:24.437Z,19.90
2023-01-30T11:03:24.346Z,22.40
2023-01-30T11:04:24.358Z,19.40
2023-01-30T11:05:24.323Z,20.80
2023-01-30T11:06:24.367Z,22.50
2023-01-30T11:07:24.315Z,20.80
2023-01-30T11:08:24.317Z,22.30
2023-01-30T11:09:24.723Z,21.50
2023-01-30T11:10:24.312Z,21.80
2023-01-30T11:11:24.263Z,22.60
2023-01-30T11:12:24.299Z,19.60
2023-01-30T11:13:24.246Z,24.80
2023-01-30T11:14:24.252Z,19.30
2023-01-30T11:15:24.222Z,20.80
2023-01-30T11:16:24.356Z,23.30
2023-01-30T11:17:24.223Z,18.50
2023-01-30T11:19:24.202Z,19.60
2023-01-30T11:20:24.191Z,22.60
2023-01-30T11:21:26.994Z,19.30
2023-01-30T11:22:24.177Z,21.20
2023-01-30T11:23:24.136Z,21.20
2023-01-30T11:24:24.170Z,22.00
2023-01-30T11:25:24.115Z,22.20
2023-01-30T11:26:27.587Z,26.90
2023-01-30T11:27:24.112Z,24.10
2023-01-30T11:28:24.126Z,21.50
2023-01-30T11:29:24.070Z,22.30
2023-01-30T11:30:24.112Z,20.50
2023-01-30T11:31:39.992Z,23.80
2023-01-30T11:32:24.095Z,18.20
2023-01-30T11:33:24.025Z,19.10
2023-01-30T11:34:24.059Z,21.40
2023-01-30T11:35:24.003Z,21.60
2023-01-30T11:36:24.271Z,21.30
2023-01-30T11:37:23.989Z,22.60
2023-01-30T11:38:24.010Z,25.10
2023-01-30T11:39:23.965Z,23.50
2023-01-30T11:40:24.032Z,25.00
2023-01-30T11:41:23.947Z,23.10
2023-01-30T11:42:24.003Z,20.50
2023-01-30T11:43:23.927Z,22.50
2023-01-30T11:44:23.937Z,20.90
2023-01-30T11:45:23.905Z,21.70
2023-01-30T11:46:23.972Z,23.80
2023-01-30T11:47:23.881Z,21.30
2023-01-30T11:48:33.910Z,19.20
2023-01-30T11:49:45.506Z,22.50
2023-01-30T11:50:25.864Z,20.60
2023-01-30T11:51:23.851Z,23.50
2023-01-30T11:52:23.849Z,24.90
2023-01-30T11:53:23.818Z,26.70
2023-01-30T11:54:23.934Z,25.80
2023-01-30T11:55:23.811Z,24.80
2023-01-30T11:56:23.816Z,20.90
2023-01-30T11:57:23.776Z,18.80
2023-01-30T11:58:23.788Z,17.90
2023-01-30T11:59:23.784Z,20.30
2023-01-30T12:00:23.838Z,21.20
2023-01-30T12:01:23.734Z,23.10
2023-01-30T12:02:23.875Z,18.80
2023-01-30T12:03:23.756Z,22.80
2023-01-30T12:04:23.734Z,21.30
2023-01-30T12:05:23.728Z,18.40
2023-01-30T12:06:23.730Z,19.50
2023-01-30T12:07:23.734Z,21.10
2023-01-30T12:08:40.282Z,20.70
2023-01-30T12:09:23.649Z,21.70
2023-01-30T12:10:23.659Z,20.30
2023-01-30T12:11:23.630Z,21.50
2023-01-30T12:12:23.665Z,26.60
2023-01-30T12:13:23.603Z,22.90
2023-01-30T12:14:23.616Z,18.80
2023-01-30T12:15:23.583Z,21.20
2023-01-30T12:16:23.699Z,22.30
2023-01-30T12:17:23.566Z,18.50
2023-01-30T12:18:23.595Z,20.00
2023-01-30T12:19:23.547Z,23.00
2023-01-30T12:20:23.559Z,20.40
2023-01-30T12:21:23.527Z,18.10
2023-01-30T12:22:23.542Z,21.90
2023-01-30T12:23:23.499Z,20.50
2023-01-30T12:24:23.539Z,18.90
2023-01-30T12:25:23.487Z,19.80
2023-01-30T12:26:23.540Z,15.10
2023-01-30T12:27:23.455Z,20.90
2023-01-30T12:28:23.470Z,20.20
2023-01-30T12:29:23.449Z,19.00
2023-01-30T12:30:23.482Z,20.40
2023-01-30T12:31:23.465Z,21.40
2023-01-30T12:32:23.425Z,17.80
2023-01-30T12:33:23.389Z,20.00
2023-01-30T12:34:27.065Z,19.90
2023-01-30T12:35:23.384Z,22.90
2023-01-30T12:36:23.481Z,23.10
2023-01-30T12:37:23.356Z,24.90
2023-01-30T12:38:23.363Z,18.90
2023-01-30T12:39:23.338Z,17.30
2023-01-30T12:40:23.344Z,21.00
2023-01-30T12:41:23.311Z,19.30
2023-01-30T12:42:25.641Z,19.20
2023-01-30T12:43:23.296Z,20.60
2023-01-30T12:44:23.298Z,21.10
2023-01-30T12:45:23.271Z,20.50
2023-01-30T12:46:23.343Z,21.70
2023-01-30T12:47:23.252Z,19.50